sensor_id;sensor_type;location;lat;lon;timestamp;temperature;humidity
70107;DHT22;57473;37.508;15.080;2023-02-12T00:01:21;6.80;89.80
70107;DHT22;57473;37.508;15.080;2023-02-12T00:03:49;6.70;90.00
70107;DHT22;57473;37.508;15.080;2023-02-12T00:06:17;6.70;90.10
70107;DHT22;57473;37.508;15.080;2023-02-12T00:08:47;6.70;90.10
70107;DHT22;57473;37.508;15.080;2023-02-12T00:11:17;6.60;90.30
70107;DHT22;57473;37.508;15.080;2023-02-12T00:13:45;6.60;90.60
70107;DHT22;57473;37.508;15.080;2023-02-12T00:16:15;6.60;90.70
70107;DHT22;57473;37.508;15.080;2023-02-12T00:18:44;6.60;90.70
70107;DHT22;57473;37.508;15.080;2023-02-12T00:21:12;6.70;90.40
70107;DHT22;57473;37.508;15.080;2023-02-12T00:23:40;6.60;90.70
70107;DHT22;57473;37.508;15.080;2023-02-12T00:26:09;6.60;90.90
70107;DHT22;57473;37.508;15.080;2023-02-12T00:28:41;6.60;91.10
70107;DHT22;57473;37.508;15.080;2023-02-12T00:31:11;6.50;91.20
70107;DHT22;57473;37.508;15.080;2023-02-12T00:33:38;6.50;91.60
70107;DHT22;57473;37.508;15.080;2023-02-12T00:36:07;6.50;91.80
70107;DHT22;57473;37.508;15.080;2023-02-12T00:38:34;6.60;92.20
70107;DHT22;57473;37.508;15.080;2023-02-12T00:41:02;6.50;91.70
70107;DHT22;57473;37.508;15.080;2023-02-12T00:43:29;6.50;91.70
70107;DHT22;57473;37.508;15.080;2023-02-12T00:45:57;6.50;91.50
70107;DHT22;57473;37.508;15.080;2023-02-12T00:48:25;6.50;92.00
70107;DHT22;57473;37.508;15.080;2023-02-12T00:50:53;6.40;91.80
70107;DHT22;57473;37.508;15.080;2023-02-12T00:53:20;6.40;91.40
70107;DHT22;57473;37.508;15.080;2023-02-12T00:55:48;6.40;90.90
70107;DHT22;57473;37.508;15.080;2023-02-12T00:58:16;6.40;90.10
70107;DHT22;57473;37.508;15.080;2023-02-12T01:00:45;6.40;89.70
70107;DHT22;57473;37.508;15.080;2023-02-12T01:03:13;6.40;89.30
70107;DHT22;57473;37.508;15.080;2023-02-12T01:05:41;6.40;88.80
70107;DHT22;57473;37.508;15.080;2023-02-12T01:08:14;6.40;89.10
70107;DHT22;57473;37.508;15.080;2023-02-12T01:10:43;6.30;89.90
70107;DHT22;57473;37.508;15.080;2023-02-12T01:13:14;6.40;88.60
70107;DHT22;57473;37.508;15.080;2023-02-12T01:15:42;6.40;88.10
70107;DHT22;57473;37.508;15.080;2023-02-12T01:18:10;6.30;88.80
70107;DHT22;57473;37.508;15.080;2023-02-12T01:20:38;6.30;89.20
70107;DHT22;57473;37.508;15.080;2023-02-12T01:23:06;6.20;89.70
70107;DHT22;57473;37.508;15.080;2023-02-12T01:25:34;6.20;90.00
70107;DHT22;57473;37.508;15.080;2023-02-12T01:28:03;6.10;90.50
70107;DHT22;57473;37.508;15.080;2023-02-12T01:30:31;6.10;90.80
70107;DHT22;57473;37.508;15.080;2023-02-12T01:32:58;6.10;91.20
70107;DHT22;57473;37.508;15.080;2023-02-12T01:35:26;6.00;91.60
70107;DHT22;57473;37.508;15.080;2023-02-12T01:37:54;6.00;91.80
70107;DHT22;57473;37.508;15.080;2023-02-12T01:40:25;6.00;91.90
70107;DHT22;57473;37.508;15.080;2023-02-12T01:42:52;6.00;92.30
70107;DHT22;57473;37.508;15.080;2023-02-12T01:45:47;6.00;92.60
70107;DHT22;57473;37.508;15.080;2023-02-12T01:48:16;5.90;92.50
70107;DHT22;57473;37.508;15.080;2023-02-12T01:50:46;5.90;92.40
70107;DHT22;57473;37.508;15.080;2023-02-12T01:53:15;5.90;92.20
70107;DHT22;57473;37.508;15.080;2023-02-12T01:55:48;5.90;92.00
70107;DHT22;57473;37.508;15.080;2023-02-12T01:58:16;5.80;92.20
70107;DHT22;57473;37.508;15.080;2023-02-12T02:00:45;5.90;89.90
70107;DHT22;57473;37.508;15.080;2023-02-12T02:03:13;5.90;89.70
70107;DHT22;57473;37.508;15.080;2023-02-12T02:05:47;5.90;90.00
70107;DHT22;57473;37.508;15.080;2023-02-12T02:08:15;5.90;90.80
70107;DHT22;57473;37.508;15.080;2023-02-12T02:10:43;5.80;91.90
70107;DHT22;57473;37.508;15.080;2023-02-12T02:13:13;5.90;91.00
70107;DHT22;57473;37.508;15.080;2023-02-12T02:16:08;5.80;90.20
70107;DHT22;57473;37.508;15.080;2023-02-12T02:18:46;5.70;90.70
70107;DHT22;57473;37.508;15.080;2023-02-12T02:22:01;5.70;89.70
70107;DHT22;57473;37.508;15.080;2023-02-12T02:27:05;5.60;89.10
70107;DHT22;57473;37.508;15.080;2023-02-12T02:30:20;5.60;89.50
70107;DHT22;57473;37.508;15.080;2023-02-12T02:33:22;5.60;90.60
70107;DHT22;57473;37.508;15.080;2023-02-12T02:35:35;5.50;90.40
70107;DHT22;57473;37.508;15.080;2023-02-12T02:40:59;5.50;90.50
70107;DHT22;57473;37.508;15.080;2023-02-12T02:43:34;5.40;90.50
70107;DHT22;57473;37.508;15.080;2023-02-12T02:46:13;5.40;90.40
70107;DHT22;57473;37.508;15.080;2023-02-12T02:48:47;5.40;90.60
70107;DHT22;57473;37.508;15.080;2023-02-12T02:51:20;5.40;90.90
70107;DHT22;57473;37.508;15.080;2023-02-12T02:54:14;5.30;91.50
70107;DHT22;57473;37.508;15.080;2023-02-12T02:56:42;5.30;91.70
70107;DHT22;57473;37.508;15.080;2023-02-12T02:59:21;5.30;92.00
70107;DHT22;57473;37.508;15.080;2023-02-12T03:02:05;5.30;91.60
70107;DHT22;57473;37.508;15.080;2023-02-12T03:04:38;5.30;91.70
70107;DHT22;57473;37.508;15.080;2023-02-12T03:07:47;5.30;92.40
70107;DHT22;57473;37.508;15.080;2023-02-12T03:10:22;5.30;92.00
70107;DHT22;57473;37.508;15.080;2023-02-12T03:13:18;5.30;91.60
70107;DHT22;57473;37.508;15.080;2023-02-12T03:18:53;5.30;92.20
70107;DHT22;57473;37.508;15.080;2023-02-12T03:21:34;5.30;92.30
70107;DHT22;57473;37.508;15.080;2023-02-12T03:24:45;5.20;92.50
70107;DHT22;57473;37.508;15.080;2023-02-12T03:29:51;5.20;93.20
70107;DHT22;57473;37.508;15.080;2023-02-12T03:35:22;5.20;93.30
70107;DHT22;57473;37.508;15.080;2023-02-12T03:37:59;5.10;93.90
70107;DHT22;57473;37.508;15.080;2023-02-12T03:40:33;5.20;93.90
70107;DHT22;57473;37.508;15.080;2023-02-12T03:43:23;5.10;94.00
70107;DHT22;57473;37.508;15.080;2023-02-12T03:50:53;5.10;93.70
70107;DHT22;57473;37.508;15.080;2023-02-12T03:53:22;5.20;93.10
70107;DHT22;57473;37.508;15.080;2023-02-12T03:55:55;5.20;93.40
70107;DHT22;57473;37.508;15.080;2023-02-12T03:58:27;5.20;92.90
70107;DHT22;57473;37.508;15.080;2023-02-12T04:00:56;5.20;92.60
70107;DHT22;57473;37.508;15.080;2023-02-12T04:03:23;5.20;92.60
70107;DHT22;57473;37.508;15.080;2023-02-12T04:05:51;5.20;92.70
70107;DHT22;57473;37.508;15.080;2023-02-12T04:08:18;5.20;92.50
70107;DHT22;57473;37.508;15.080;2023-02-12T04:13:44;5.20;92.50
70107;DHT22;57473;37.508;15.080;2023-02-12T04:16:23;5.20;92.70
70107;DHT22;57473;37.508;15.080;2023-02-12T04:18:52;5.20;92.70
70107;DHT22;57473;37.508;15.080;2023-02-12T04:24:27;5.20;93.50
70107;DHT22;57473;37.508;15.080;2023-02-12T04:27:37;5.20;93.00
70107;DHT22;57473;37.508;15.080;2023-02-12T04:30:04;5.10;93.00
70107;DHT22;57473;37.508;15.080;2023-02-12T04:35:12;5.20;93.40
70107;DHT22;57473;37.508;15.080;2023-02-12T04:37:52;5.10;94.20
70107;DHT22;57473;37.508;15.080;2023-02-12T04:40:21;5.10;94.20
70107;DHT22;57473;37.508;15.080;2023-02-12T04:42:51;5.10;95.00
70107;DHT22;57473;37.508;15.080;2023-02-12T04:45:28;5.10;95.40
70107;DHT22;57473;37.508;15.080;2023-02-12T04:47:56;5.10;95.60
70107;DHT22;57473;37.508;15.080;2023-02-12T04:50:23;5.10;95.60
70107;DHT22;57473;37.508;15.080;2023-02-12T04:52:51;5.00;96.00
70107;DHT22;57473;37.508;15.080;2023-02-12T04:55:18;5.00;96.70
70107;DHT22;57473;37.508;15.080;2023-02-12T04:57:46;5.00;97.10
70107;DHT22;57473;37.508;15.080;2023-02-12T05:00:14;5.10;97.30
70107;DHT22;57473;37.508;15.080;2023-02-12T05:02:42;5.00;98.10
70107;DHT22;57473;37.508;15.080;2023-02-12T05:05:09;5.10;97.80
70107;DHT22;57473;37.508;15.080;2023-02-12T05:07:36;5.10;97.90
70107;DHT22;57473;37.508;15.080;2023-02-12T05:10:04;5.10;98.20
70107;DHT22;57473;37.508;15.080;2023-02-12T05:12:31;5.00;98.40
70107;DHT22;57473;37.508;15.080;2023-02-12T05:14:59;5.10;97.20
70107;DHT22;57473;37.508;15.080;2023-02-12T05:17:26;5.10;96.90
70107;DHT22;57473;37.508;15.080;2023-02-12T05:19:53;5.10;96.80
70107;DHT22;57473;37.508;15.080;2023-02-12T05:22:21;5.10;96.70
70107;DHT22;57473;37.508;15.080;2023-02-12T05:24:48;5.10;96.50
70107;DHT22;57473;37.508;15.080;2023-02-12T05:27:15;5.10;96.70
70107;DHT22;57473;37.508;15.080;2023-02-12T05:29:42;5.00;96.80
70107;DHT22;57473;37.508;15.080;2023-02-12T05:32:10;5.00;97.40
70107;DHT22;57473;37.508;15.080;2023-02-12T05:34:37;4.90;97.80
70107;DHT22;57473;37.508;15.080;2023-02-12T05:37:05;4.90;98.00
70107;DHT22;57473;37.508;15.080;2023-02-12T05:39:32;4.90;98.80
70107;DHT22;57473;37.508;15.080;2023-02-12T05:41:59;4.80;99.20
70107;DHT22;57473;37.508;15.080;2023-02-12T05:44:26;4.80;99.80
70107;DHT22;57473;37.508;15.080;2023-02-12T05:46:54;4.80;99.60
70107;DHT22;57473;37.508;15.080;2023-02-12T05:49:21;4.80;99.90
70107;DHT22;57473;37.508;15.080;2023-02-12T05:51:49;4.80;99.70
70107;DHT22;57473;37.508;15.080;2023-02-12T05:54:16;4.80;99.90
70107;DHT22;57473;37.508;15.080;2023-02-12T05:56:45;4.80;99.90
70107;DHT22;57473;37.508;15.080;2023-02-12T05:59:17;4.80;99.70
70107;DHT22;57473;37.508;15.080;2023-02-12T06:01:46;4.80;99.80
70107;DHT22;57473;37.508;15.080;2023-02-12T06:04:22;4.80;99.80
70107;DHT22;57473;37.508;15.080;2023-02-12T06:06:51;4.80;99.60
70107;DHT22;57473;37.508;15.080;2023-02-12T06:09:18;4.80;99.70
70107;DHT22;57473;37.508;15.080;2023-02-12T06:11:46;4.80;99.70
70107;DHT22;57473;37.508;15.080;2023-02-12T06:14:15;4.80;99.90
70107;DHT22;57473;37.508;15.080;2023-02-12T06:16:45;4.80;99.90
70107;DHT22;57473;37.508;15.080;2023-02-12T06:19:13;4.90;99.90
70107;DHT22;57473;37.508;15.080;2023-02-12T06:21:41;4.90;99.20
70107;DHT22;57473;37.508;15.080;2023-02-12T06:24:12;5.00;98.90
70107;DHT22;57473;37.508;15.080;2023-02-12T06:26:40;5.00;97.20
70107;DHT22;57473;37.508;15.080;2023-02-12T06:29:08;5.10;96.00
70107;DHT22;57473;37.508;15.080;2023-02-12T06:31:36;5.20;95.50
70107;DHT22;57473;37.508;15.080;2023-02-12T06:34:12;5.30;95.00
70107;DHT22;57473;37.508;15.080;2023-02-12T06:36:41;5.40;93.70
70107;DHT22;57473;37.508;15.080;2023-02-12T06:39:15;5.50;92.50
70107;DHT22;57473;37.508;15.080;2023-02-12T06:41:43;5.60;91.70
70107;DHT22;57473;37.508;15.080;2023-02-12T06:44:11;5.70;91.00
70107;DHT22;57473;37.508;15.080;2023-02-12T06:46:39;5.80;89.60
70107;DHT22;57473;37.508;15.080;2023-02-12T06:49:07;5.90;88.60
70107;DHT22;57473;37.508;15.080;2023-02-12T06:51:34;6.10;88.20
70107;DHT22;57473;37.508;15.080;2023-02-12T06:54:04;6.10;87.00
70107;DHT22;57473;37.508;15.080;2023-02-12T06:56:31;6.20;86.50
70107;DHT22;57473;37.508;15.080;2023-02-12T06:58:58;6.30;85.90
70107;DHT22;57473;37.508;15.080;2023-02-12T07:01:28;6.40;85.00
70107;DHT22;57473;37.508;15.080;2023-02-12T07:04:01;6.50;85.00
70107;DHT22;57473;37.508;15.080;2023-02-12T07:06:30;6.60;84.00
70107;DHT22;57473;37.508;15.080;2023-02-12T07:09:00;6.70;83.70
70107;DHT22;57473;37.508;15.080;2023-02-12T07:11:32;6.90;82.20
70107;DHT22;57473;37.508;15.080;2023-02-12T07:14:04;7.00;81.10
70107;DHT22;57473;37.508;15.080;2023-02-12T07:16:32;7.10;79.80
70107;DHT22;57473;37.508;15.080;2023-02-12T07:18:59;7.20;78.60
70107;DHT22;57473;37.508;15.080;2023-02-12T07:21:26;7.40;78.30
70107;DHT22;57473;37.508;15.080;2023-02-12T07:23:54;7.50;76.40
70107;DHT22;57473;37.508;15.080;2023-02-12T07:26:21;7.60;76.40
70107;DHT22;57473;37.508;15.080;2023-02-12T07:28:50;7.80;76.20
70107;DHT22;57473;37.508;15.080;2023-02-12T07:31:19;7.90;74.00
70107;DHT22;57473;37.508;15.080;2023-02-12T07:33:47;8.00;73.50
70107;DHT22;57473;37.508;15.080;2023-02-12T07:36:17;8.10;72.60
70107;DHT22;57473;37.508;15.080;2023-02-12T07:38:45;8.30;72.30
70107;DHT22;57473;37.508;15.080;2023-02-12T07:43:46;8.40;71.80
70107;DHT22;57473;37.508;15.080;2023-02-12T07:46:17;8.60;70.10
70107;DHT22;57473;37.508;15.080;2023-02-12T07:48:46;8.70;69.00
70107;DHT22;57473;37.508;15.080;2023-02-12T07:51:15;8.80;68.70
70107;DHT22;57473;37.508;15.080;2023-02-12T07:53:46;8.90;68.40
70107;DHT22;57473;37.508;15.080;2023-02-12T07:56:22;9.00;68.20
70107;DHT22;57473;37.508;15.080;2023-02-12T07:58:51;9.20;67.40
70107;DHT22;57473;37.508;15.080;2023-02-12T08:01:27;9.30;67.10
70107;DHT22;57473;37.508;15.080;2023-02-12T08:04:09;9.40;66.10
70107;DHT22;57473;37.508;15.080;2023-02-12T08:06:39;9.50;65.70
70107;DHT22;57473;37.508;15.080;2023-02-12T08:09:10;9.60;64.30
70107;DHT22;57473;37.508;15.080;2023-02-12T08:11:38;9.70;63.60
70107;DHT22;57473;37.508;15.080;2023-02-12T08:14:06;9.80;63.50
70107;DHT22;57473;37.508;15.080;2023-02-12T08:16:38;9.90;63.20
70107;DHT22;57473;37.508;15.080;2023-02-12T08:19:06;10.00;63.20
70107;DHT22;57473;37.508;15.080;2023-02-12T08:21:47;10.10;63.70
70107;DHT22;57473;37.508;15.080;2023-02-12T08:24:15;10.20;63.10
70107;DHT22;57473;37.508;15.080;2023-02-12T08:26:42;10.30;62.90
70107;DHT22;57473;37.508;15.080;2023-02-12T08:29:13;10.40;61.70
70107;DHT22;57473;37.508;15.080;2023-02-12T08:31:43;10.40;60.40
70107;DHT22;57473;37.508;15.080;2023-02-12T08:34:22;10.40;59.70
70107;DHT22;57473;37.508;15.080;2023-02-12T08:36:51;10.50;59.40
70107;DHT22;57473;37.508;15.080;2023-02-12T08:39:20;10.50;59.30
70107;DHT22;57473;37.508;15.080;2023-02-12T08:41:48;10.60;59.40
70107;DHT22;57473;37.508;15.080;2023-02-12T08:44:16;10.70;59.30
70107;DHT22;57473;37.508;15.080;2023-02-12T08:46:46;10.80;59.10
70107;DHT22;57473;37.508;15.080;2023-02-12T08:49:16;10.80;59.10
70107;DHT22;57473;37.508;15.080;2023-02-12T08:51:47;10.90;59.80
70107;DHT22;57473;37.508;15.080;2023-02-12T08:54:17;11.00;60.00
70107;DHT22;57473;37.508;15.080;2023-02-12T08:56:44;11.10;59.40
70107;DHT22;57473;37.508;15.080;2023-02-12T08:59:13;11.20;59.10
70107;DHT22;57473;37.508;15.080;2023-02-12T09:01:42;11.30;59.10
70107;DHT22;57473;37.508;15.080;2023-02-12T09:04:31;11.30;58.10
70107;DHT22;57473;37.508;15.080;2023-02-12T09:06:58;11.40;58.90
70107;DHT22;57473;37.508;15.080;2023-02-12T09:09:26;11.50;58.20
70107;DHT22;57473;37.508;15.080;2023-02-12T09:11:53;11.70;58.00
70107;DHT22;57473;37.508;15.080;2023-02-12T09:14:22;11.80;57.60
70107;DHT22;57473;37.508;15.080;2023-02-12T09:16:52;11.90;57.20
70107;DHT22;57473;37.508;15.080;2023-02-12T09:19:20;12.10;56.20
70107;DHT22;57473;37.508;15.080;2023-02-12T09:21:51;12.30;55.20
70107;DHT22;57473;37.508;15.080;2023-02-12T09:24:23;12.40;54.50
70107;DHT22;57473;37.508;15.080;2023-02-12T09:26:50;12.50;54.60
70107;DHT22;57473;37.508;15.080;2023-02-12T09:29:17;12.60;54.20
70107;DHT22;57473;37.508;15.080;2023-02-12T09:31:45;12.50;53.50
70107;DHT22;57473;37.508;15.080;2023-02-12T09:34:13;12.50;53.60
70107;DHT22;57473;37.508;15.080;2023-02-12T09:36:40;12.60;53.10
70107;DHT22;57473;37.508;15.080;2023-02-12T09:39:07;12.70;50.80
70107;DHT22;57473;37.508;15.080;2023-02-12T09:44:31;13.00;49.90
70107;DHT22;57473;37.508;15.080;2023-02-12T09:52:25;13.00;47.40
70107;DHT22;57473;37.508;15.080;2023-02-12T09:54:54;12.90;48.50
70107;DHT22;57473;37.508;15.080;2023-02-12T09:57:27;13.00;48.40
70107;DHT22;57473;37.508;15.080;2023-02-12T10:00:26;13.20;48.90
70107;DHT22;57473;37.508;15.080;2023-02-12T10:02:55;13.30;48.60
70107;DHT22;57473;37.508;15.080;2023-02-12T10:05:43;13.30;48.60
70107;DHT22;57473;37.508;15.080;2023-02-12T10:19:30;13.30;46.80
70107;DHT22;57473;37.508;15.080;2023-02-12T10:25:08;13.30;46.60
70107;DHT22;57473;37.508;15.080;2023-02-12T10:27:49;13.40;47.00
70107;DHT22;57473;37.508;15.080;2023-02-12T10:30:25;13.50;45.90
70107;DHT22;57473;37.508;15.080;2023-02-12T10:33:40;13.50;44.60
70107;DHT22;57473;37.508;15.080;2023-02-12T10:35:50;13.50;45.20
70107;DHT22;57473;37.508;15.080;2023-02-12T10:38:26;13.70;45.20
70107;DHT22;57473;37.508;15.080;2023-02-12T10:40:55;13.90;47.10
70107;DHT22;57473;37.508;15.080;2023-02-12T10:43:24;14.10;45.90
70107;DHT22;57473;37.508;15.080;2023-02-12T10:45:51;14.20;44.70
70107;DHT22;57473;37.508;15.080;2023-02-12T10:48:24;14.30;45.00
70107;DHT22;57473;37.508;15.080;2023-02-12T10:53:37;14.50;44.30
70107;DHT22;57473;37.508;15.080;2023-02-12T11:03:54;14.90;44.70
70107;DHT22;57473;37.508;15.080;2023-02-12T11:06:26;14.80;43.30
70107;DHT22;57473;37.508;15.080;2023-02-12T11:08:55;14.60;44.30
70107;DHT22;57473;37.508;15.080;2023-02-12T11:11:29;14.70;43.80
70107;DHT22;57473;37.508;15.080;2023-02-12T11:14:03;14.90;43.20
70107;DHT22;57473;37.508;15.080;2023-02-12T11:16:54;15.20;41.70
70107;DHT22;57473;37.508;15.080;2023-02-12T11:19:30;15.50;41.60
70107;DHT22;57473;37.508;15.080;2023-02-12T11:22:12;15.70;40.50
70107;DHT22;57473;37.508;15.080;2023-02-12T11:24:45;15.60;39.30
70107;DHT22;57473;37.508;15.080;2023-02-12T11:27:26;15.70;39.90
70107;DHT22;57473;37.508;15.080;2023-02-12T11:32:35;15.80;37.40
70107;DHT22;57473;37.508;15.080;2023-02-12T11:35:05;16.00;38.00
70107;DHT22;57473;37.508;15.080;2023-02-12T11:37:41;16.30;37.70
70107;DHT22;57473;37.508;15.080;2023-02-12T11:40:33;16.50;37.30
70107;DHT22;57473;37.508;15.080;2023-02-12T11:43:06;16.70;37.40
70107;DHT22;57473;37.508;15.080;2023-02-12T11:45:50;16.50;39.30
70107;DHT22;57473;37.508;15.080;2023-02-12T11:48:23;16.60;38.80
70107;DHT22;57473;37.508;15.080;2023-02-12T11:50:53;16.90;38.20
70107;DHT22;57473;37.508;15.080;2023-02-12T11:53:29;17.20;38.40
70107;DHT22;57473;37.508;15.080;2023-02-12T11:56:09;17.80;37.40
70107;DHT22;57473;37.508;15.080;2023-02-12T11:58:37;17.70;36.80
70107;DHT22;57473;37.508;15.080;2023-02-12T12:03:52;18.20;35.90
70107;DHT22;57473;37.508;15.080;2023-02-12T12:09:13;18.20;37.50
70107;DHT22;57473;37.508;15.080;2023-02-12T12:14:30;17.70;38.40
70107;DHT22;57473;37.508;15.080;2023-02-12T12:17:05;17.80;38.00
70107;DHT22;57473;37.508;15.080;2023-02-12T12:20:10;17.70;37.60
70107;DHT22;57473;37.508;15.080;2023-02-12T12:22:45;17.90;37.90
70107;DHT22;57473;37.508;15.080;2023-02-12T12:25:30;18.00;37.20
70107;DHT22;57473;37.508;15.080;2023-02-12T12:29:03;18.00;37.70
70107;DHT22;57473;37.508;15.080;2023-02-12T12:31:05;18.60;37.70
70107;DHT22;57473;37.508;15.080;2023-02-12T12:33:50;19.10;36.70
70107;DHT22;57473;37.508;15.080;2023-02-12T12:52:38;19.80;34.80
70107;DHT22;57473;37.508;15.080;2023-02-12T12:58:06;20.10;35.40
70107;DHT22;57473;37.508;15.080;2023-02-12T13:17:09;22.00;33.40
70107;DHT22;57473;37.508;15.080;2023-02-12T13:22:39;19.80;36.90
70107;DHT22;57473;37.508;15.080;2023-02-12T13:27:42;19.50;37.80
70107;DHT22;57473;37.508;15.080;2023-02-12T13:30:17;18.90;39.30
70107;DHT22;57473;37.508;15.080;2023-02-12T13:33:18;17.90;41.00
70107;DHT22;57473;37.508;15.080;2023-02-12T13:35:50;17.00;42.90
70107;DHT22;57473;37.508;15.080;2023-02-12T13:38:26;16.70;43.70
70107;DHT22;57473;37.508;15.080;2023-02-12T13:41:00;16.30;44.30
70107;DHT22;57473;37.508;15.080;2023-02-12T13:46:53;15.90;45.80
70107;DHT22;57473;37.508;15.080;2023-02-12T13:49:52;15.80;46.50
70107;DHT22;57473;37.508;15.080;2023-02-12T14:01:04;15.40;47.50
70107;DHT22;57473;37.508;15.080;2023-02-12T14:03:35;15.20;47.50
70107;DHT22;57473;37.508;15.080;2023-02-12T14:06:17;15.20;48.50
70107;DHT22;57473;37.508;15.080;2023-02-12T14:09:07;15.10;48.20
70107;DHT22;57473;37.508;15.080;2023-02-12T14:11:49;15.20;48.60
70107;DHT22;57473;37.508;15.080;2023-02-12T14:14:33;15.30;46.80
70107;DHT22;57473;37.508;15.080;2023-02-12T14:20:30;15.30;46.50
70107;DHT22;57473;37.508;15.080;2023-02-12T14:26:10;15.30;47.90
70107;DHT22;57473;37.508;15.080;2023-02-12T14:28:58;15.30;45.80
70107;DHT22;57473;37.508;15.080;2023-02-12T14:36:38;15.30;46.00
70107;DHT22;57473;37.508;15.080;2023-02-12T14:41:54;15.10;45.90
70107;DHT22;57473;37.508;15.080;2023-02-12T14:46:54;15.10;47.80
70107;DHT22;57473;37.508;15.080;2023-02-12T14:49:26;15.00;48.80
70107;DHT22;57473;37.508;15.080;2023-02-12T14:54:46;15.10;49.40
70107;DHT22;57473;37.508;15.080;2023-02-12T14:59:59;15.10;50.40
70107;DHT22;57473;37.508;15.080;2023-02-12T15:02:33;15.30;50.40
70107;DHT22;57473;37.508;15.080;2023-02-12T15:06:06;15.40;50.00
70107;DHT22;57473;37.508;15.080;2023-02-12T15:17:07;15.50;50.30
70107;DHT22;57473;37.508;15.080;2023-02-12T15:19:29;15.50;50.10
70107;DHT22;57473;37.508;15.080;2023-02-12T15:21:58;15.60;49.80
70107;DHT22;57473;37.508;15.080;2023-02-12T15:24:27;15.50;49.20
70107;DHT22;57473;37.508;15.080;2023-02-12T15:26:57;15.50;49.10
70107;DHT22;57473;37.508;15.080;2023-02-12T15:30:00;15.50;49.50
70107;DHT22;57473;37.508;15.080;2023-02-12T15:32:27;15.50;49.60
70107;DHT22;57473;37.508;15.080;2023-02-12T15:34:56;15.30;49.90
70107;DHT22;57473;37.508;15.080;2023-02-12T15:37:28;15.20;49.80
70107;DHT22;57473;37.508;15.080;2023-02-12T15:40:00;15.00;50.10
70107;DHT22;57473;37.508;15.080;2023-02-12T15:42:35;14.80;50.80
70107;DHT22;57473;37.508;15.080;2023-02-12T15:47:41;14.60;51.70
70107;DHT22;57473;37.508;15.080;2023-02-12T15:50:16;14.60;52.40
70107;DHT22;57473;37.508;15.080;2023-02-12T15:52:45;14.40;52.10
70107;DHT22;57473;37.508;15.080;2023-02-12T15:55:22;14.30;52.50
70107;DHT22;57473;37.508;15.080;2023-02-12T15:57:53;14.20;52.50
70107;DHT22;57473;37.508;15.080;2023-02-12T16:00:41;14.20;53.10
70107;DHT22;57473;37.508;15.080;2023-02-12T16:03:30;14.10;53.40
70107;DHT22;57473;37.508;15.080;2023-02-12T16:06:12;14.00;54.10
70107;DHT22;57473;37.508;15.080;2023-02-12T16:08:44;14.00;54.00
70107;DHT22;57473;37.508;15.080;2023-02-12T16:11:13;13.80;54.10
70107;DHT22;57473;37.508;15.080;2023-02-12T16:13:55;13.80;54.50
70107;DHT22;57473;37.508;15.080;2023-02-12T16:16:26;13.70;54.50
70107;DHT22;57473;37.508;15.080;2023-02-12T16:19:23;13.60;54.40
70107;DHT22;57473;37.508;15.080;2023-02-12T16:22:08;13.60;55.90
70107;DHT22;57473;37.508;15.080;2023-02-12T16:24:49;13.60;54.60
70107;DHT22;57473;37.508;15.080;2023-02-12T16:27:20;13.60;55.30
70107;DHT22;57473;37.508;15.080;2023-02-12T16:32:40;13.60;55.10
70107;DHT22;57473;37.508;15.080;2023-02-12T16:42:55;13.50;55.80
70107;DHT22;57473;37.508;15.080;2023-02-12T16:50:26;13.30;57.20
70107;DHT22;57473;37.508;15.080;2023-02-12T16:53:00;13.30;57.20
70107;DHT22;57473;37.508;15.080;2023-02-12T16:55:28;13.20;57.40
70107;DHT22;57473;37.508;15.080;2023-02-12T16:57:55;13.20;58.30
70107;DHT22;57473;37.508;15.080;2023-02-12T17:00:23;13.10;58.80
70107;DHT22;57473;37.508;15.080;2023-02-12T17:02:56;13.10;58.80
70107;DHT22;57473;37.508;15.080;2023-02-12T17:05:23;13.00;59.00
70107;DHT22;57473;37.508;15.080;2023-02-12T17:07:50;12.90;59.30
70107;DHT22;57473;37.508;15.080;2023-02-12T17:10:18;12.90;59.20
70107;DHT22;57473;37.508;15.080;2023-02-12T17:12:50;12.80;59.80
70107;DHT22;57473;37.508;15.080;2023-02-12T17:15:25;12.80;60.30
70107;DHT22;57473;37.508;15.080;2023-02-12T17:17:54;12.80;61.70
70107;DHT22;57473;37.508;15.080;2023-02-12T17:20:21;12.80;62.00
70107;DHT22;57473;37.508;15.080;2023-02-12T17:22:52;12.80;62.60
70107;DHT22;57473;37.508;15.080;2023-02-12T17:25:20;12.80;62.70
70107;DHT22;57473;37.508;15.080;2023-02-12T17:27:47;12.80;63.00
70107;DHT22;57473;37.508;15.080;2023-02-12T17:30:18;12.80;63.10
70107;DHT22;57473;37.508;15.080;2023-02-12T17:32:47;12.80;64.40
70107;DHT22;57473;37.508;15.080;2023-02-12T17:35:17;12.80;65.50
70107;DHT22;57473;37.508;15.080;2023-02-12T17:37:45;12.80;65.80
70107;DHT22;57473;37.508;15.080;2023-02-12T17:40:14;12.80;64.90
70107;DHT22;57473;37.508;15.080;2023-02-12T17:42:41;12.80;66.40
70107;DHT22;57473;37.508;15.080;2023-02-12T17:45:09;12.70;64.80
70107;DHT22;57473;37.508;15.080;2023-02-12T17:47:36;12.80;64.20
70107;DHT22;57473;37.508;15.080;2023-02-12T17:50:15;12.80;63.90
70107;DHT22;57473;37.508;15.080;2023-02-12T17:52:43;12.80;64.40
70107;DHT22;57473;37.508;15.080;2023-02-12T17:55:10;12.80;64.40
70107;DHT22;57473;37.508;15.080;2023-02-12T17:57:39;12.70;63.30
70107;DHT22;57473;37.508;15.080;2023-02-12T18:00:09;12.70;64.10
70107;DHT22;57473;37.508;15.080;2023-02-12T18:02:37;12.70;64.50
70107;DHT22;57473;37.508;15.080;2023-02-12T18:05:04;12.70;64.30
70107;DHT22;57473;37.508;15.080;2023-02-12T18:07:33;12.60;63.90
70107;DHT22;57473;37.508;15.080;2023-02-12T18:10:01;12.60;63.80
70107;DHT22;57473;37.508;15.080;2023-02-12T18:12:30;12.60;64.60
70107;DHT22;57473;37.508;15.080;2023-02-12T18:14:58;12.50;64.80
70107;DHT22;57473;37.508;15.080;2023-02-12T18:17:26;12.50;64.10
70107;DHT22;57473;37.508;15.080;2023-02-12T18:19:54;12.50;64.40
70107;DHT22;57473;37.508;15.080;2023-02-12T18:22:22;12.50;64.50
70107;DHT22;57473;37.508;15.080;2023-02-12T18:24:50;12.50;64.30
70107;DHT22;57473;37.508;15.080;2023-02-12T18:27:17;12.60;64.20
70107;DHT22;57473;37.508;15.080;2023-02-12T18:29:45;12.60;64.10
70107;DHT22;57473;37.508;15.080;2023-02-12T18:32:12;12.60;64.10
70107;DHT22;57473;37.508;15.080;2023-02-12T18:34:42;12.70;63.60
70107;DHT22;57473;37.508;15.080;2023-02-12T18:37:12;12.70;63.30
70107;DHT22;57473;37.508;15.080;2023-02-12T18:39:39;12.70;63.40
70107;DHT22;57473;37.508;15.080;2023-02-12T18:42:07;12.70;63.30
70107;DHT22;57473;37.508;15.080;2023-02-12T18:44:35;12.70;63.70
70107;DHT22;57473;37.508;15.080;2023-02-12T18:47:03;12.70;63.60
70107;DHT22;57473;37.508;15.080;2023-02-12T18:49:30;12.70;64.40
70107;DHT22;57473;37.508;15.080;2023-02-12T18:51:58;12.70;64.40